Terminal Aerodrome Forecast
Issued by NWS

Home | Current Version | Previous Version | Text Only | Print | Product List | Glossary On
Versions: 1 2 3 4 5 6 7 8 9 10 11 12 13 14 15
487
FTUS44 KLZK 280751 AAA
TAFHRO
TAF AMD
KHRO 280751Z 2808/2906 VRB03KT 3SM BR VCFG SCT250
      TEMPO 2808/2810 1SM BR BKN002
     FM281000 VRB03KT 2SM BR VCFG BKN005
      TEMPO 2810/2812 1/2SM FG BKN001
     FM281500 13006KT P6SM SCT040 SCT250
     FM290000 13004KT P6SM SCT250=

USA.gov is the U.S. government's official web portal to all federal, state and local government web resources and services.